Time;durP1;ratioP1;P1;durP2;ratioP2;P2;SDS_P1;SDS_P2;PMS_P1;PMS_P2;Temp;Humidity;BMP_temperature;BMP_pressure;BME280_temperature;BME280_humidity;BME280_pressure;Samples;Min_cycle;Max_cycle;Signal;HPM_P1;HPM_P2
2021/11/10 00:00:09;;;;;;;7.07;4.77;;;7.10;99.90;;;;;;5062809;28;20476;-72
2021/11/10 00:02:34;;;;;;;6.57;5.70;;;7.10;99.90;;;;;;5053923;28;20765;-72
2021/11/10 00:05:00;;;;;;;5.93;4.93;;;7.10;99.90;;;;;;5053871;28;20400;-72
2021/11/10 00:07:25;;;;;;;11.07;6.00;;;7.10;99.90;;;;;;5053730;28;20206;-71
2021/11/10 00:09:51;;;;;;;6.53;5.90;;;7.10;99.90;;;;;;5053900;28;20516;-72
2021/11/10 00:12:16;;;;;;;8.70;5.47;;;7.10;99.90;;;;;;5053807;28;20158;-72
2021/11/10 00:14:42;;;;;;;6.83;5.30;;;7.00;99.90;;;;;;5070479;28;20270;-72
2021/11/10 00:17:07;;;;;;;6.80;5.67;;;7.00;99.90;;;;;;5073683;28;20193;-72
2021/11/10 00:19:33;;;;;;;7.17;6.00;;;7.00;99.90;;;;;;5073680;28;20179;-71
2021/11/10 00:21:59;;;;;;;7.70;5.80;;;7.00;99.90;;;;;;5073632;28;20168;-72
2021/11/10 00:24:24;;;;;;;8.80;6.60;;;7.00;99.90;;;;;;5073470;28;20166;-72
2021/11/10 00:26:50;;;;;;;8.30;6.40;;;6.90;99.90;;;;;;5073433;28;21252;-72
2021/11/10 00:29:15;;;;;;;8.70;6.57;;;6.90;99.90;;;;;;5067209;28;20199;-72
2021/11/10 00:31:41;;;;;;;7.73;6.60;;;6.90;99.90;;;;;;5055785;28;20261;-72
2021/11/10 00:34:06;;;;;;;13.63;6.57;;;6.90;99.90;;;;;;5053351;28;20156;-72
2021/11/10 00:36:32;;;;;;;9.53;6.83;;;6.90;99.90;;;;;;5053308;28;20158;-71
2021/11/10 00:38:58;;;;;;;9.73;7.20;;;6.90;99.90;;;;;;5053108;28;20540;-71
2021/11/10 00:41:24;;;;;;;8.70;6.47;;;6.80;99.90;;;;;;5053315;28;20163;-71
2021/11/10 00:43:50;;;;;;;11.13;6.60;;;6.80;99.90;;;;;;5053143;28;20543;-71
2021/11/10 00:46:15;;;;;;;11.53;7.53;;;6.80;99.90;;;;;;5053110;28;20510;-71
2021/11/10 00:48:41;;;;;;;8.87;6.13;;;6.80;99.90;;;;;;5053528;28;20424;-71
2021/11/10 00:51:07;;;;;;;7.90;7.10;;;6.70;99.90;;;;;;5067260;28;20177;-71
2021/11/10 00:53:33;;;;;;;11.40;7.80;;;6.70;99.90;;;;;;5072967;28;20157;-71
2021/11/10 00:55:59;;;;;;;6.83;6.10;;;6.70;99.90;;;;;;5072690;28;20400;-71
2021/11/10 00:58:24;;;;;;;8.70;6.97;;;6.70;99.90;;;;;;5072746;28;20165;-71
2021/11/10 01:00:50;;;;;;;8.57;7.17;;;6.70;99.90;;;;;;5059721;28;20432;-71
2021/11/10 01:03:15;;;;;;;9.07;6.20;;;6.60;99.90;;;;;;5052801;28;20204;-71
2021/11/10 01:05:41;;;;;;;10.80;6.87;;;6.60;99.90;;;;;;5069240;28;20659;-71
2021/11/10 01:08:09;;;;;;;8.77;7.13;;;6.60;99.90;;;;;;5072494;28;20158;-71
2021/11/10 01:10:36;;;;;;;10.43;7.03;;;6.60;99.90;;;;;;5072621;28;20201;-72
2021/11/10 01:13:02;;;;;;;13.17;8.80;;;6.50;99.90;;;;;;5072487;28;20823;-71
2021/11/10 01:15:28;;;;;;;11.10;6.57;;;6.50;99.90;;;;;;5071871;28;20791;-71
2021/11/10 01:17:54;;;;;;;9.00;7.03;;;6.50;99.90;;;;;;5070881;28;20431;-71
2021/11/10 01:20:20;;;;;;;11.23;7.13;;;6.40;99.90;;;;;;5072237;28;20601;-72
2021/11/10 01:22:46;;;;;;;8.23;6.87;;;6.40;99.90;;;;;;5054693;28;20226;-71
2021/11/10 01:25:12;;;;;;;10.23;6.50;;;6.30;99.90;;;;;;5052383;28;20893;-72
2021/11/10 01:27:38;;;;;;;7.90;6.97;;;6.30;99.90;;;;;;5052285;28;20492;-72
2021/11/10 01:30:06;;;;;;;11.60;6.17;;;6.30;99.90;;;;;;5052097;28;20447;-72
2021/11/10 01:32:32;;;;;;;7.10;6.23;;;6.30;99.90;;;;;;5052243;28;20640;-72
2021/11/10 01:34:57;;;;;;;10.40;7.60;;;6.30;99.90;;;;;;5052178;28;20394;-71
2021/11/10 01:37:23;;;;;;;9.10;6.50;;;6.20;99.90;;;;;;5052129;28;20575;-72
2021/11/10 01:39:48;;;;;;;6.97;6.27;;;6.20;99.90;;;;;;5052668;28;20186;-72
2021/11/10 01:42:14;;;;;;;10.83;7.43;;;6.20;99.90;;;;;;5052108;28;20157;-71
2021/11/10 01:44:39;;;;;;;10.10;7.50;;;6.20;99.90;;;;;;5052163;28;20166;-72
2021/11/10 01:47:08;;;;;;;10.23;6.70;;;6.10;99.90;;;;;;5054274;28;20209;-72
2021/11/10 01:49:36;;;;;;;12.17;7.30;;;6.10;99.90;;;;;;5072032;28;20155;-73
2021/11/10 01:52:03;;;;;;;13.07;7.30;;;6.10;99.90;;;;;;5072091;28;20401;-71
2021/11/10 01:54:31;;;;;;;11.03;7.70;;;6.10;99.90;;;;;;5071838;28;20429;-71
2021/11/10 01:56:57;;;;;;;13.60;6.77;;;6.10;99.90;;;;;;5052429;28;20428;-71
2021/11/10 02:02:11;;;;;;;9.73;6.93;;;6.10;99.90;;;;;;5130352;27;20516;-72
2021/11/10 02:04:39;;;;;;;11.23;7.77;;;6.10;99.90;;;;;;5130275;28;20386;-71
2021/11/10 02:07:05;;;;;;;9.73;6.10;;;6.00;99.90;;;;;;5130108;27;20806;-72
2021/11/10 02:09:31;;;;;;;8.30;5.80;;;6.00;99.90;;;;;;5130220;28;20380;-72
2021/11/10 02:11:58;;;;;;;9.23;6.57;;;6.00;99.90;;;;;;5128275;28;20418;-72
2021/11/10 02:14:27;;;;;;;10.80;7.03;;;6.00;99.90;;;;;;5130163;28;20152;-72
2021/11/10 02:16:55;;;;;;;8.10;6.13;;;6.00;99.90;;;;;;5129957;28;20469;-72
2021/11/10 02:19:21;;;;;;;8.57;7.13;;;6.00;99.90;;;;;;5130051;28;20385;-72
2021/11/10 02:21:51;;;;;;;12.13;6.80;;;6.00;99.90;;;;;;5129993;28;20437;-72
2021/11/10 02:24:18;;;;;;;7.70;6.23;;;6.00;99.90;;;;;;5129883;28;20382;-72
2021/11/10 02:26:45;;;;;;;8.03;6.70;;;5.90;99.90;;;;;;5129762;28;20906;-72
2021/11/10 02:29:14;;;;;;;9.27;7.53;;;5.90;99.90;;;;;;5128444;28;20417;-72
2021/11/10 02:31:41;;;;;;;8.50;6.80;;;5.90;99.90;;;;;;5128028;28;20977;-72
2021/11/10 02:34:06;;;;;;;7.57;6.30;;;6.00;99.90;;;;;;5129802;28;20395;-72
2021/11/10 02:36:33;;;;;;;10.47;6.00;;;6.00;99.90;;;;;;5129416;27;20404;-72
2021/11/10 02:39:02;;;;;;;8.17;6.97;;;6.00;99.90;;;;;;5129438;28;20525;-72
2021/11/10 02:41:29;;;;;;;9.50;6.90;;;6.00;99.90;;;;;;5129544;28;20446;-72
2021/11/10 02:43:55;;;;;;;10.73;7.77;;;6.00;99.90;;;;;;5129389;27;20420;-72
2021/11/10 02:46:22;;;;;;;13.40;6.83;;;6.00;99.90;;;;;;5123236;28;20409;-72
2021/11/10 02:48:48;;;;;;;9.40;7.30;;;6.00;99.90;;;;;;5109186;28;20475;-72
2021/11/10 02:51:14;;;;;;;12.03;7.47;;;6.00;99.90;;;;;;5109154;28;20480;-72
2021/11/10 02:53:40;;;;;;;7.77;6.33;;;5.90;99.90;;;;;;5108872;28;20164;-73
2021/11/10 02:56:06;;;;;;;7.53;6.67;;;6.00;99.90;;;;;;5108807;28;20209;-72
2021/11/10 02:58:32;;;;;;;9.37;7.10;;;5.90;99.90;;;;;;5108589;28;21032;-72
2021/11/10 03:00:58;;;;;;;8.60;6.30;;;5.90;99.90;;;;;;5122443;28;20469;-73
2021/11/10 03:03:24;;;;;;;7.63;6.37;;;5.90;99.90;;;;;;5122401;28;20799;-71
2021/11/10 03:05:51;;;;;;;7.97;6.47;;;5.90;99.90;;;;;;5108859;28;20209;-71
2021/11/10 03:08:19;;;;;;;10.63;6.90;;;5.90;99.90;;;;;;5108895;28;20161;-71
2021/11/10 03:10:45;;;;;;;8.90;6.77;;;5.90;99.90;;;;;;5108518;28;20408;-71
2021/11/10 03:13:10;;;;;;;10.87;6.93;;;5.80;99.90;;;;;;5096560;28;20414;-71
2021/11/10 03:15:37;;;;;;;9.80;7.27;;;5.90;99.90;;;;;;5095063;28;20177;-71
2021/11/10 03:18:03;;;;;;;9.27;6.90;;;5.90;99.90;;;;;;5094853;28;20155;-71
2021/11/10 03:20:29;;;;;;;8.30;5.83;;;5.80;99.90;;;;;;5095338;28;20444;-71
2021/11/10 03:22:55;;;;;;;11.53;7.67;;;5.80;99.90;;;;;;5094840;28;20159;-71
2021/11/10 03:25:20;;;;;;;9.10;6.20;;;5.80;99.90;;;;;;5094760;28;20699;-71
2021/11/10 03:27:46;;;;;;;11.33;6.63;;;5.80;99.90;;;;;;5094752;28;20143;-71
2021/11/10 03:30:11;;;;;;;9.40;7.07;;;5.80;99.90;;;;;;5097454;28;20196;-71
2021/11/10 03:32:37;;;;;;;18.20;8.00;;;5.80;99.90;;;;;;5094562;28;20526;-72
2021/11/10 03:35:03;;;;;;;10.43;7.50;;;5.80;99.90;;;;;;5094462;28;20222;-72
2021/11/10 03:37:29;;;;;;;14.10;7.83;;;5.80;99.90;;;;;;5101176;28;20173;-72
2021/11/10 03:39:54;;;;;;;10.53;8.13;;;5.80;99.90;;;;;;5114777;28;20756;-73
2021/11/10 03:42:21;;;;;;;11.93;8.03;;;5.80;99.90;;;;;;5114827;28;20424;-72
2021/11/10 03:44:46;;;;;;;14.63;8.23;;;5.80;99.90;;;;;;5115017;28;20171;-72
2021/11/10 03:47:12;;;;;;;12.67;9.27;;;5.80;99.90;;;;;;5114622;28;20395;-72
2021/11/10 03:49:37;;;;;;;11.03;7.40;;;5.70;99.90;;;;;;5114645;28;20159;-72
2021/11/10 03:52:03;;;;;;;12.57;7.53;;;5.70;99.90;;;;;;5114532;28;20219;-72
2021/11/10 03:54:29;;;;;;;7.60;5.80;;;5.70;99.90;;;;;;5107570;28;20183;-76
2021/11/10 03:56:54;;;;;;;9.40;6.50;;;5.70;99.90;;;;;;5094117;28;20421;-76
2021/11/10 03:59:20;;;;;;;7.23;5.83;;;5.70;99.90;;;;;;5096978;28;20678;-78
2021/11/10 04:01:46;;;;;;;8.40;6.30;;;5.70;99.90;;;;;;5093985;28;20707;-78
2021/11/10 04:04:11;;;;;;;7.63;6.00;;;5.70;99.90;;;;;;5094117;28;20617;-78
2021/11/10 04:06:38;;;;;;;9.83;6.97;;;5.80;99.90;;;;;;5094034;28;20162;-77
2021/11/10 04:09:05;;;;;;;8.80;5.77;;;5.80;99.90;;;;;;5093934;28;20590;-77
2021/11/10 04:11:31;;;;;;;7.60;5.60;;;5.80;99.90;;;;;;5100870;28;20413;-77
2021/11/10 04:13:57;;;;;;;7.20;5.50;;;5.80;99.90;;;;;;5114391;28;20412;-77
2021/11/10 04:16:22;;;;;;;8.80;5.43;;;5.80;99.90;;;;;;5113981;28;20270;-78
2021/11/10 04:18:51;;;;;;;7.50;5.07;;;5.80;99.90;;;;;;5113946;28;20266;-77
2021/11/10 04:21:19;;;;;;;8.00;5.40;;;5.80;99.90;;;;;;5114058;28;20279;-77
2021/11/10 04:23:47;;;;;;;7.60;5.40;;;5.90;99.90;;;;;;5112929;28;20423;-77
2021/11/10 04:26:13;;;;;;;5.60;4.50;;;5.90;99.90;;;;;;5113887;28;20472;-76
2021/11/10 04:28:39;;;;;;;7.47;5.30;;;5.90;99.90;;;;;;5108736;28;20506;-77
2021/11/10 04:31:05;;;;;;;6.50;4.83;;;5.90;99.90;;;;;;5100278;28;20593;-76
2021/11/10 04:33:31;;;;;;;6.77;5.00;;;5.90;99.90;;;;;;5093354;28;20221;-77
2021/11/10 04:35:56;;;;;;;5.17;4.63;;;5.90;99.90;;;;;;5093609;28;20191;-78
2021/11/10 04:38:22;;;;;;;6.50;5.03;;;5.90;99.90;;;;;;5093352;28;20962;-77
2021/11/10 04:40:48;;;;;;;7.60;4.73;;;6.00;99.90;;;;;;5093293;28;20197;-77
2021/11/10 04:43:14;;;;;;;10.30;5.60;;;5.90;99.90;;;;;;5093164;28;20152;-76
2021/11/10 04:45:40;;;;;;;9.00;5.20;;;6.00;99.90;;;;;;5094371;28;20434;-77
2021/11/10 04:48:07;;;;;;;6.43;4.70;;;6.00;99.90;;;;;;5105437;28;20797;-76
2021/11/10 04:50:33;;;;;;;12.03;6.47;;;5.90;99.90;;;;;;5095113;28;20422;-77
2021/11/10 04:52:59;;;;;;;7.93;5.10;;;5.90;99.90;;;;;;5096109;28;20459;-77
2021/11/10 04:55:26;;;;;;;7.63;6.70;;;5.90;99.90;;;;;;5101579;28;20550;-77
2021/11/10 04:57:52;;;;;;;9.47;7.03;;;5.90;99.90;;;;;;5098213;28;20421;-78
2021/11/10 05:00:18;;;;;;;7.23;4.80;;;5.90;99.90;;;;;;5097391;28;21002;-77
2021/11/10 05:02:43;;;;;;;6.63;5.70;;;5.90;99.90;;;;;;5100472;28;20181;-77
2021/11/10 05:05:09;;;;;;;5.67;5.17;;;5.90;99.90;;;;;;5092794;28;20178;-77
2021/11/10 05:07:35;;;;;;;9.60;5.70;;;5.90;99.90;;;;;;5093485;28;20224;-76
2021/11/10 05:10:01;;;;;;;6.57;5.30;;;5.90;99.90;;;;;;5098311;28;20176;-77
2021/11/10 05:12:28;;;;;;;5.93;5.40;;;5.80;99.90;;;;;;5112801;28;20380;-77
2021/11/10 05:14:56;;;;;;;7.53;5.03;;;5.80;99.90;;;;;;5111263;28;20899;-78
2021/11/10 05:17:24;;;;;;;7.53;5.00;;;5.80;99.90;;;;;;5111941;28;20409;-77
2021/11/10 05:19:50;;;;;;;7.90;5.10;;;5.80;99.90;;;;;;5109911;28;20446;-77
2021/11/10 05:22:16;;;;;;;9.77;5.20;;;5.80;99.90;;;;;;5111799;28;20394;-76
2021/11/10 05:24:42;;;;;;;5.80;5.23;;;5.70;99.90;;;;;;5112490;28;20395;-77
2021/11/10 05:27:08;;;;;;;10.20;5.70;;;5.70;99.90;;;;;;5111116;28;20499;-77
2021/11/10 05:29:33;;;;;;;7.63;5.80;;;5.70;99.90;;;;;;5108056;28;20176;-76
2021/11/10 05:31:59;;;;;;;7.50;6.10;;;5.70;99.90;;;;;;5112672;28;20809;-76
2021/11/10 05:34:24;;;;;;;8.30;5.53;;;5.70;99.90;;;;;;5107756;28;20218;-77
2021/11/10 05:36:50;;;;;;;8.70;5.90;;;5.70;99.90;;;;;;5100781;28;20189;-77
2021/11/10 05:39:17;;;;;;;7.83;5.60;;;5.70;99.90;;;;;;5093681;28;20277;-78
2021/11/10 05:41:44;;;;;;;10.37;5.57;;;5.70;99.90;;;;;;5095092;28;20204;-78
2021/11/10 05:44:10;;;;;;;6.70;6.00;;;5.80;99.90;;;;;;5102021;28;20434;-76
2021/11/10 05:46:36;;;;;;;11.13;6.87;;;5.80;99.90;;;;;;5092339;28;20770;-75
2021/11/10 05:49:02;;;;;;;13.70;6.53;;;5.80;99.90;;;;;;5101292;28;20524;-78
2021/11/10 05:51:30;;;;;;;10.10;5.97;;;5.80;99.90;;;;;;5094662;28;20214;-77
2021/11/10 05:53:57;;;;;;;9.23;5.50;;;5.70;99.90;;;;;;5092125;28;20423;-77
2021/11/10 05:56:24;;;;;;;6.60;5.77;;;5.70;99.90;;;;;;5105027;28;20425;-78
2021/11/10 05:58:51;;;;;;;9.20;5.80;;;5.70;99.90;;;;;;5098958;28;20453;-77
2021/11/10 06:01:18;;;;;;;6.63;5.77;;;5.70;99.90;;;;;;5100817;28;20466;-77
2021/11/10 06:03:44;;;;;;;17.10;6.80;;;5.70;99.90;;;;;;5096986;28;20555;-78
2021/11/10 06:06:09;;;;;;;14.20;7.17;;;5.70;99.90;;;;;;5099776;28;20985;-77
2021/11/10 06:08:37;;;;;;;13.47;7.07;;;5.70;99.90;;;;;;5103200;28;20295;-77
2021/11/10 06:11:04;;;;;;;8.30;6.33;;;5.60;99.90;;;;;;5100614;28;20181;-77
2021/11/10 06:13:29;;;;;;;10.43;7.50;;;5.60;99.90;;;;;;5104008;28;20550;-77
2021/11/10 06:15:55;;;;;;;6.73;6.00;;;5.60;99.90;;;;;;5093356;28;20995;-78
2021/11/10 06:18:20;;;;;;;12.43;7.03;;;5.60;99.90;;;;;;5111641;28;20180;-76
2021/11/10 06:20:46;;;;;;;8.97;6.33;;;5.50;99.90;;;;;;5116965;28;20573;-78
2021/11/10 06:23:11;;;;;;;11.40;7.17;;;5.50;99.90;;;;;;5111955;28;20619;-77
2021/11/10 06:25:37;;;;;;;9.03;8.20;;;5.50;99.90;;;;;;5111878;28;20167;-77
2021/11/10 06:28:02;;;;;;;11.50;7.70;;;5.50;99.90;;;;;;5099886;28;20185;-75
2021/11/10 06:30:28;;;;;;;10.73;7.57;;;5.40;99.90;;;;;;5102582;28;20664;-77
2021/11/10 06:32:57;;;;;;;13.93;8.23;;;5.40;99.90;;;;;;5101795;28;20497;-75
2021/11/10 06:35:23;;;;;;;12.87;8.33;;;5.40;99.90;;;;;;5098447;28;20724;-75
2021/11/10 06:37:48;;;;;;;15.87;7.87;;;5.40;99.90;;;;;;5094185;28;20486;-73
2021/11/10 06:40:15;;;;;;;10.60;7.23;;;5.40;99.90;;;;;;5111886;28;20200;-76
2021/11/10 06:42:41;;;;;;;8.47;7.03;;;5.40;99.90;;;;;;5100464;28;20183;-75
2021/11/10 06:45:07;;;;;;;8.83;7.10;;;5.40;99.90;;;;;;5094389;28;20426;-77
2021/11/10 06:47:33;;;;;;;10.10;7.97;;;5.30;99.90;;;;;;5092242;28;20648;-76
2021/11/10 06:49:59;;;;;;;7.70;6.87;;;5.40;99.90;;;;;;5103100;28;20428;-75
2021/11/10 06:52:25;;;;;;;8.60;7.30;;;5.30;99.90;;;;;;5097240;28;20422;-75
2021/11/10 06:54:51;;;;;;;7.83;6.97;;;5.40;99.90;;;;;;5111779;28;20194;-78
2021/11/10 06:57:17;;;;;;;8.50;7.40;;;5.40;99.90;;;;;;5107448;28;20171;-75
2021/11/10 06:59:43;;;;;;;10.30;7.60;;;5.40;99.90;;;;;;5106208;28;21009;-76
2021/11/10 07:02:09;;;;;;;10.73;7.60;;;5.40;99.90;;;;;;5105131;28;20597;-77
2021/11/10 07:04:35;;;;;;;11.43;7.70;;;5.40;99.90;;;;;;5107857;28;20662;-76
2021/11/10 07:07:01;;;;;;;8.23;7.23;;;5.40;99.90;;;;;;5093470;28;20813;-76
2021/11/10 07:09:27;;;;;;;9.43;8.13;;;5.40;99.90;;;;;;5093311;28;20393;-76
2021/11/10 07:11:52;;;;;;;15.03;7.87;;;5.40;99.90;;;;;;5093237;28;20816;-77
2021/11/10 07:14:18;;;;;;;8.80;7.23;;;5.40;99.90;;;;;;5094488;28;20196;-73
2021/11/10 07:16:43;;;;;;;10.23;8.03;;;5.40;99.90;;;;;;5093792;28;20178;-77
2021/11/10 07:19:09;;;;;;;13.63;7.57;;;5.40;99.90;;;;;;5101718;27;20269;-76
2021/11/10 07:21:35;;;;;;;8.97;6.57;;;5.50;99.90;;;;;;5102261;27;20211;-76
2021/11/10 07:24:01;;;;;;;9.23;8.27;;;5.50;99.90;;;;;;5099044;28;20185;-77
2021/11/10 07:26:26;;;;;;;15.50;8.40;;;5.50;99.90;;;;;;5094510;28;21400;-76
2021/11/10 07:28:52;;;;;;;9.80;8.40;;;5.50;99.90;;;;;;5102451;28;20458;-76
2021/11/10 07:31:19;;;;;;;12.80;8.03;;;5.50;99.90;;;;;;5101712;27;20190;-77
2021/11/10 07:33:44;;;;;;;13.37;9.57;;;5.40;99.90;;;;;;5102965;28;20463;-75
2021/11/10 07:36:10;;;;;;;13.73;8.80;;;5.40;99.90;;;;;;5108785;28;20464;-77
2021/11/10 07:38:39;;;;;;;14.10;9.37;;;5.40;99.90;;;;;;5108305;28;20174;-78
2021/11/10 07:41:06;;;;;;;12.97;7.90;;;5.50;99.90;;;;;;5101209;28;20200;-77
2021/11/10 07:43:33;;;;;;;12.60;8.40;;;5.50;99.90;;;;;;5104934;27;20437;-75
2021/11/10 07:46:06;;;;;;;12.20;8.07;;;5.50;99.90;;;;;;5098396;28;20495;-76
2021/11/10 07:48:33;;;;;;;12.83;8.53;;;5.60;99.90;;;;;;5097362;28;20430;-77
2021/11/10 07:50:58;;;;;;;11.20;8.47;;;5.60;99.90;;;;;;5100769;28;20986;-76
2021/11/10 07:53:24;;;;;;;11.73;8.00;;;5.60;99.90;;;;;;5096647;28;20518;-75
2021/11/10 07:55:49;;;;;;;13.17;8.90;;;5.60;99.90;;;;;;5095657;28;20202;-76
2021/11/10 07:58:15;;;;;;;14.10;8.17;;;5.70;99.90;;;;;;5098660;28;20199;-74
2021/11/10 08:00:41;;;;;;;19.83;9.93;;;5.70;99.90;;;;;;5096611;28;20220;-73
2021/11/10 08:03:07;;;;;;;10.13;8.20;;;5.80;99.90;;;;;;5098690;28;20598;-77
2021/11/10 08:05:33;;;;;;;13.37;8.83;;;5.80;99.90;;;;;;5096891;28;20425;-74
2021/11/10 08:07:59;;;;;;;12.07;8.87;;;5.90;99.90;;;;;;5093838;28;20472;-76
2021/11/10 08:10:25;;;;;;;13.73;9.23;;;5.90;99.90;;;;;;5095277;28;20470;-76
2021/11/10 08:12:51;;;;;;;12.30;8.20;;;5.90;99.90;;;;;;5101638;28;20179;-76
2021/11/10 08:15:16;;;;;;;11.33;8.73;;;5.90;99.90;;;;;;5099225;28;20179;-78
2021/11/10 08:17:43;;;;;;;11.57;8.43;;;6.00;99.90;;;;;;5097729;28;20182;-78
2021/11/10 08:20:13;;;;;;;11.43;8.90;;;6.00;99.90;;;;;;5098496;28;20631;-75
2021/11/10 08:22:39;;;;;;;22.87;13.23;;;6.00;99.90;;;;;;5095680;28;20575;-76
2021/11/10 08:25:07;;;;;;;16.17;9.37;;;6.00;99.90;;;;;;5102876;28;20433;-78
2021/11/10 08:27:35;;;;;;;13.70;9.50;;;6.00;99.90;;;;;;5091249;28;20440;-78
2021/11/10 08:30:03;;;;;;;14.33;10.00;;;6.10;99.90;;;;;;5092183;28;20451;-76
2021/11/10 08:32:29;;;;;;;17.50;9.63;;;6.20;99.90;;;;;;5096361;28;20973;-76
2021/11/10 08:34:55;;;;;;;9.60;8.60;;;6.20;99.90;;;;;;5093111;28;20438;-77
2021/11/10 08:37:20;;;;;;;20.43;11.30;;;6.30;99.90;;;;;;5095627;28;20178;-77
2021/11/10 08:39:46;;;;;;;15.10;10.07;;;6.30;99.90;;;;;;5102355;27;21644;-77
2021/11/10 08:42:12;;;;;;;13.30;8.37;;;6.30;99.90;;;;;;5097523;28;20207;-76
2021/11/10 08:44:41;;;;;;;14.57;8.90;;;6.30;99.90;;;;;;5092178;28;20237;-75
2021/11/10 08:47:08;;;;;;;13.27;10.27;;;6.30;99.90;;;;;;5098256;28;20438;-77
2021/11/10 08:49:34;;;;;;;15.60;10.77;;;6.20;99.90;;;;;;5094751;28;20793;-77
2021/11/10 08:52:00;;;;;;;15.63;10.20;;;6.30;99.90;;;;;;5092806;28;20932;-74
2021/11/10 08:54:26;;;;;;;10.30;9.20;;;6.30;99.90;;;;;;5094326;28;20446;-76
2021/11/10 08:56:54;;;;;;;14.90;8.87;;;6.40;99.90;;;;;;5093789;28;20938;-77
2021/11/10 08:59:21;;;;;;;15.20;8.90;;;6.40;99.90;;;;;;5096738;28;20801;-77
2021/11/10 09:01:50;;;;;;;10.07;9.07;;;6.50;99.90;;;;;;5094866;28;20508;-76
2021/11/10 09:04:17;;;;;;;12.67;9.63;;;6.60;99.90;;;;;;5095951;28;20449;-77
2021/11/10 09:06:42;;;;;;;17.40;10.30;;;6.70;99.90;;;;;;5107164;28;20926;-76
2021/11/10 09:09:08;;;;;;;14.30;9.73;;;6.80;99.90;;;;;;5096077;28;20516;-77
2021/11/10 09:11:33;;;;;;;16.83;10.27;;;6.90;99.90;;;;;;5093159;28;20186;-77
2021/11/10 09:13:59;;;;;;;14.83;9.67;;;7.00;99.90;;;;;;5099566;28;20177;-77
2021/11/10 09:16:25;;;;;;;16.63;11.33;;;7.10;99.90;;;;;;5097681;28;20176;-78
2021/11/10 09:18:50;;;;;;;14.70;10.50;;;7.20;99.90;;;;;;5094405;28;20243;-78
2021/11/10 09:21:16;;;;;;;16.70;10.00;;;7.30;99.90;;;;;;5095368;28;20212;-79
2021/11/10 09:23:41;;;;;;;14.77;10.27;;;7.40;99.90;;;;;;5101269;28;20281;-77
2021/11/10 09:26:07;;;;;;;11.83;10.30;;;7.40;99.90;;;;;;5095700;28;20263;-75
2021/11/10 09:28:33;;;;;;;17.20;10.17;;;7.50;99.90;;;;;;5093055;28;20179;-77
2021/11/10 09:30:59;;;;;;;11.67;9.30;;;7.60;99.90;;;;;;5096550;28;20180;-76
2021/11/10 09:33:25;;;;;;;11.83;9.87;;;7.70;99.90;;;;;;5095354;28;20478;-77
2021/11/10 09:35:53;;;;;;;13.20;9.80;;;7.80;99.90;;;;;;5098316;28;20178;-77
2021/11/10 09:38:19;;;;;;;10.83;9.50;;;7.90;99.90;;;;;;5097271;28;20839;-77
2021/11/10 09:40:45;;;;;;;19.30;10.20;;;8.00;99.90;;;;;;5101111;28;20571;-77
2021/11/10 09:43:13;;;;;;;12.60;9.37;;;8.10;99.90;;;;;;5098048;28;20568;-76
2021/11/10 09:45:39;;;;;;;12.50;9.20;;;8.20;99.90;;;;;;5103853;28;21077;-74
2021/11/10 09:48:07;;;;;;;13.90;9.07;;;8.30;99.90;;;;;;5101743;28;20472;-77
2021/11/10 09:50:35;;;;;;;15.33;10.07;;;8.40;99.90;;;;;;5100101;28;20532;-74
2021/11/10 09:53:01;;;;;;;13.70;9.20;;;8.50;99.90;;;;;;5098340;28;20447;-76
2021/11/10 09:55:30;;;;;;;10.60;9.43;;;8.60;99.90;;;;;;5097140;28;20532;-78
2021/11/10 09:57:57;;;;;;;9.37;8.47;;;8.70;99.90;;;;;;5093832;28;20190;-79
2021/11/10 10:00:28;;;;;;;10.43;8.50;;;8.80;99.90;;;;;;5096463;28;20460;-78
2021/11/10 10:03:05;;;;;;;13.73;10.40;;;8.90;99.90;;;;;;5097881;28;20417;-77
2021/11/10 10:05:35;;;;;;;15.57;9.80;;;8.90;99.90;;;;;;5098640;28;20420;-79
2021/11/10 10:08:03;;;;;;;15.67;9.53;;;9.00;99.90;;;;;;5092454;28;20859;-77
2021/11/10 10:10:29;;;;;;;13.47;9.13;;;9.10;99.90;;;;;;5099086;28;20519;-77
2021/11/10 10:12:58;;;;;;;13.20;9.30;;;9.10;99.90;;;;;;5097646;28;20471;-77
2021/11/10 10:15:26;;;;;;;9.00;7.80;;;9.10;99.90;;;;;;5109318;28;20496;-77
2021/11/10 10:17:57;;;;;;;8.83;7.90;;;9.10;99.90;;;;;;5094533;28;20436;-79
2021/11/10 10:23:07;;;;;;;10.73;8.93;;;9.10;99.90;;;;;;5160101;27;20585;-73
2021/11/10 10:25:45;;;;;;;10.03;8.50;;;9.10;99.90;;;;;;5147636;27;20429;-74
2021/11/10 10:28:14;;;;;;;10.90;7.97;;;9.10;99.90;;;;;;5142696;27;20519;-74
2021/11/10 10:30:45;;;;;;;10.60;8.33;;;9.10;99.90;;;;;;5148026;27;20428;-74
2021/11/10 10:33:15;;;;;;;13.10;8.60;;;9.10;99.90;;;;;;5139455;27;20450;-74
2021/11/10 10:38:36;;;;;;;9.63;7.60;;;9.10;99.90;;;;;;5057152;28;21012;-72
2021/11/10 10:41:04;;;;;;;9.50;7.83;;;9.10;99.90;;;;;;5046414;28;20426;-72
2021/11/10 10:43:38;;;;;;;9.60;6.73;;;9.00;99.90;;;;;;5030338;28;20812;-72
2021/11/10 10:46:04;;;;;;;7.80;6.23;;;9.10;99.90;;;;;;5033923;28;20468;-72
2021/11/10 10:48:30;;;;;;;7.60;6.47;;;9.10;99.90;;;;;;5042704;28;20411;-72
2021/11/10 10:56:16;;;;;;;10.30;7.00;;;9.10;99.90;;;;;;5063752;28;20548;-72
2021/11/10 10:58:43;;;;;;;7.60;6.70;;;9.10;99.90;;;;;;5037615;28;20550;-72
2021/11/10 11:04:08;;;;;;;8.07;5.93;;;9.20;99.90;;;;;;5058621;28;20541;-71
2021/11/10 11:09:25;;;;;;;8.43;7.53;;;9.30;99.90;;;;;;5075100;28;20654;-71
2021/11/10 11:11:58;;;;;;;9.70;8.43;;;9.40;99.90;;;;;;5064172;28;20440;-71
2021/11/10 11:17:31;;;;;;;8.87;7.17;;;9.60;99.90;;;;;;5062449;28;20451;-72
2021/11/10 11:20:19;;;;;;;9.00;7.23;;;9.70;99.90;;;;;;5066276;28;20450;-72
2021/11/10 11:30:39;;;;;;;8.33;6.10;;;9.90;99.90;;;;;;5105267;27;20587;-72
2021/11/10 11:33:09;;;;;;;7.77;6.97;;;10.00;99.90;;;;;;5108500;28;21018;-73
2021/11/10 11:38:18;;;;;;;11.30;5.70;;;10.20;99.90;;;;;;5068737;28;20529;-73
2021/11/10 11:40:47;;;;;;;7.40;6.53;;;10.20;99.90;;;;;;5058290;28;20434;-72
2021/11/10 11:43:16;;;;;;;6.60;5.83;;;10.30;99.90;;;;;;5052048;28;20477;-73
2021/11/10 11:45:45;;;;;;;7.50;6.47;;;10.40;99.90;;;;;;5052387;28;20586;-73
2021/11/10 11:48:10;;;;;;;8.40;5.73;;;10.40;99.90;;;;;;5052406;28;20430;-73
2021/11/10 11:50:37;;;;;;;7.23;6.10;;;10.50;99.90;;;;;;5057598;28;20508;-74
2021/11/10 11:53:02;;;;;;;6.87;5.60;;;10.50;99.90;;;;;;5056733;28;20183;-73
2021/11/10 11:55:35;;;;;;;7.07;5.50;;;10.50;99.90;;;;;;5053956;28;20438;-74
2021/11/10 12:00:48;;;;;;;8.40;5.77;;;10.60;99.90;;;;;;5067580;28;20542;-72
2021/11/10 12:06:15;;;;;;;7.53;5.87;;;10.60;99.90;;;;;;5060115;28;20546;-71
2021/11/10 12:08:47;;;;;;;9.03;6.50;;;10.70;99.90;;;;;;5038828;28;20430;-71
2021/11/10 12:11:28;;;;;;;8.30;5.83;;;10.80;99.90;;;;;;5042566;28;20415;-71
2021/11/10 12:17:01;;;;;;;14.33;5.80;;;10.80;99.90;;;;;;5118392;27;20542;-71
2021/11/10 12:35:37;;;;;;;7.97;6.00;;;10.70;99.90;;;;;;5058865;28;20663;-71
2021/11/10 12:38:12;;;;;;;11.30;6.87;;;10.60;99.90;;;;;;5058696;28;20431;-70
2021/11/10 12:40:53;;;;;;;11.70;8.83;;;10.60;99.90;;;;;;5057387;28;20453;-71
2021/11/10 12:43:22;;;;;;;8.70;6.20;;;10.70;99.90;;;;;;5050047;28;20395;-70
2021/11/10 12:48:32;;;;;;;6.43;5.80;;;10.70;99.90;;;;;;5045839;28;21063;-70
2021/11/10 12:51:17;;;;;;;7.70;5.47;;;10.70;99.90;;;;;;5029204;28;20507;-71
2021/11/10 12:53:45;;;;;;;7.93;5.80;;;10.80;99.90;;;;;;5029206;28;20420;-71
2021/11/10 12:56:11;;;;;;;11.27;8.13;;;10.80;99.90;;;;;;5025474;28;20443;-71
2021/11/10 12:58:38;;;;;;;9.87;7.07;;;10.80;99.90;;;;;;5032462;28;20778;-72
2021/11/10 13:01:07;;;;;;;9.13;6.97;;;10.80;99.90;;;;;;5031422;28;20923;-71
2021/11/10 13:03:35;;;;;;;10.20;7.13;;;10.80;99.90;;;;;;5021147;28;20468;-72
2021/11/10 13:11:36;;;;;;;20.33;10.60;;;10.70;99.90;;;;;;5101167;27;20531;-72
2021/11/10 13:14:06;;;;;;;17.93;10.97;;;10.70;99.90;;;;;;5085996;28;20966;-72
2021/11/10 13:16:32;;;;;;;15.17;8.70;;;10.60;99.90;;;;;;5084539;28;20517;-72
2021/11/10 13:18:58;;;;;;;10.10;8.90;;;10.60;99.90;;;;;;5086902;28;20837;-71
2021/11/10 13:21:24;;;;;;;9.63;7.00;;;10.60;99.90;;;;;;5088481;28;20175;-72
2021/11/10 13:24:07;;;;;;;12.80;7.97;;;10.60;99.90;;;;;;5087421;28;20719;-72
2021/11/10 13:26:34;;;;;;;11.10;8.10;;;10.60;99.90;;;;;;5089474;28;20477;-73
2021/11/10 13:29:00;;;;;;;10.77;8.70;;;10.60;99.90;;;;;;5084903;28;20464;-76
2021/11/10 13:31:25;;;;;;;9.53;8.50;;;10.60;99.90;;;;;;5084223;28;20487;-76
2021/11/10 13:33:51;;;;;;;10.43;7.77;;;10.60;99.90;;;;;;5082940;28;20181;-76
2021/11/10 13:36:24;;;;;;;10.33;7.10;;;10.50;99.90;;;;;;5078053;28;20320;-76
2021/11/10 13:41:48;;;;;;;9.60;6.50;;;10.50;99.90;;;;;;5060149;28;20519;-74
2021/11/10 13:44:17;;;;;;;9.37;6.60;;;10.50;99.90;;;;;;5065219;28;20470;-75
2021/11/10 13:46:47;;;;;;;9.20;6.07;;;10.50;99.90;;;;;;5065920;28;20491;-75
2021/11/10 13:49:19;;;;;;;11.40;6.70;;;10.50;99.90;;;;;;5060020;28;20547;-76
2021/11/10 13:51:54;;;;;;;10.30;6.70;;;10.50;99.90;;;;;;5062544;28;20812;-75
2021/11/10 13:54:21;;;;;;;11.40;6.50;;;10.50;99.90;;;;;;5067217;28;20443;-75
2021/11/10 13:56:53;;;;;;;7.50;5.67;;;10.40;99.90;;;;;;5065110;28;20772;-74